sensor_id;sensor_type;location;lat;lon;timestamp;temperature;humidity
16174;DHT22;14031;50.158;8.626;2023-07-29T00:00:41;20.50;99.90
16174;DHT22;14031;50.158;8.626;2023-07-29T00:03:08;20.50;99.90
16174;DHT22;14031;50.158;8.626;2023-07-29T00:05:36;20.50;99.90
16174;DHT22;14031;50.158;8.626;2023-07-29T00:08:05;20.50;99.90
16174;DHT22;14031;50.158;8.626;2023-07-29T00:10:35;20.50;99.90
16174;DHT22;14031;50.158;8.626;2023-07-29T00:13:02;20.50;99.90
16174;DHT22;14031;50.158;8.626;2023-07-29T00:15:28;20.50;99.90
16174;DHT22;14031;50.158;8.626;2023-07-29T00:17:55;20.50;99.90
16174;DHT22;14031;50.158;8.626;2023-07-29T00:20:22;20.50;99.90
16174;DHT22;14031;50.158;8.626;2023-07-29T00:22:49;20.50;99.90
16174;DHT22;14031;50.158;8.626;2023-07-29T00:25:20;20.50;99.90
16174;DHT22;14031;50.158;8.626;2023-07-29T00:27:46;20.50;99.90
16174;DHT22;14031;50.158;8.626;2023-07-29T00:30:13;20.50;99.90
16174;DHT22;14031;50.158;8.626;2023-07-29T00:32:40;20.50;99.90
16174;DHT22;14031;50.158;8.626;2023-07-29T00:35:08;20.50;99.90
16174;DHT22;14031;50.158;8.626;2023-07-29T00:37:34;20.50;99.90
16174;DHT22;14031;50.158;8.626;2023-07-29T00:40:03;20.50;99.90
16174;DHT22;14031;50.158;8.626;2023-07-29T00:42:31;20.50;99.90
16174;DHT22;14031;50.158;8.626;2023-07-29T00:44:58;20.50;99.90
16174;DHT22;14031;50.158;8.626;2023-07-29T00:47:25;20.40;99.90
16174;DHT22;14031;50.158;8.626;2023-07-29T00:49:52;20.40;99.90
16174;DHT22;14031;50.158;8.626;2023-07-29T00:52:19;20.60;99.90
16174;DHT22;14031;50.158;8.626;2023-07-29T00:54:46;20.50;99.90
16174;DHT22;14031;50.158;8.626;2023-07-29T00:57:14;20.50;99.90
16174;DHT22;14031;50.158;8.626;2023-07-29T00:59:43;20.40;99.90
16174;DHT22;14031;50.158;8.626;2023-07-29T01:02:10;20.40;99.90
16174;DHT22;14031;50.158;8.626;2023-07-29T01:04:37;20.40;99.90
16174;DHT22;14031;50.158;8.626;2023-07-29T01:07:10;20.30;99.90
16174;DHT22;14031;50.158;8.626;2023-07-29T01:09:47;20.40;99.90
16174;DHT22;14031;50.158;8.626;2023-07-29T01:12:21;20.30;99.90
16174;DHT22;14031;50.158;8.626;2023-07-29T01:14:57;20.40;99.90
16174;DHT22;14031;50.158;8.626;2023-07-29T01:17:31;20.40;99.90
16174;DHT22;14031;50.158;8.626;2023-07-29T01:20:00;20.50;99.90
16174;DHT22;14031;50.158;8.626;2023-07-29T01:22:29;20.50;99.90
16174;DHT22;14031;50.158;8.626;2023-07-29T01:24:58;20.30;99.90
16174;DHT22;14031;50.158;8.626;2023-07-29T01:27:25;20.40;99.90
16174;DHT22;14031;50.158;8.626;2023-07-29T01:29:53;20.50;99.90
16174;DHT22;14031;50.158;8.626;2023-07-29T01:32:26;20.40;99.90
16174;DHT22;14031;50.158;8.626;2023-07-29T01:35:00;20.40;99.90
16174;DHT22;14031;50.158;8.626;2023-07-29T01:37:32;20.40;99.90
16174;DHT22;14031;50.158;8.626;2023-07-29T01:40:02;20.40;99.90
16174;DHT22;14031;50.158;8.626;2023-07-29T01:42:30;20.40;99.90
16174;DHT22;14031;50.158;8.626;2023-07-29T01:44:57;20.60;99.90
16174;DHT22;14031;50.158;8.626;2023-07-29T01:47:24;20.40;99.90
16174;DHT22;14031;50.158;8.626;2023-07-29T01:49:51;20.20;99.90
16174;DHT22;14031;50.158;8.626;2023-07-29T01:52:18;20.40;99.90
16174;DHT22;14031;50.158;8.626;2023-07-29T01:54:45;20.40;99.90
16174;DHT22;14031;50.158;8.626;2023-07-29T01:57:13;20.40;99.90
16174;DHT22;14031;50.158;8.626;2023-07-29T01:59:40;20.40;99.90
16174;DHT22;14031;50.158;8.626;2023-07-29T02:02:07;20.40;99.90
16174;DHT22;14031;50.158;8.626;2023-07-29T02:04:33;20.40;99.90
16174;DHT22;14031;50.158;8.626;2023-07-29T02:07:00;20.30;99.90
16174;DHT22;14031;50.158;8.626;2023-07-29T02:09:27;20.40;99.90
16174;DHT22;14031;50.158;8.626;2023-07-29T02:11:56;20.40;99.90
16174;DHT22;14031;50.158;8.626;2023-07-29T02:14:24;20.40;99.90
16174;DHT22;14031;50.158;8.626;2023-07-29T02:16:51;20.40;99.90
16174;DHT22;14031;50.158;8.626;2023-07-29T02:19:19;20.40;99.90
16174;DHT22;14031;50.158;8.626;2023-07-29T02:21:46;20.40;99.90
16174;DHT22;14031;50.158;8.626;2023-07-29T02:24:15;20.30;99.90
16174;DHT22;14031;50.158;8.626;2023-07-29T02:26:42;20.20;99.90
16174;DHT22;14031;50.158;8.626;2023-07-29T02:29:09;20.30;99.90
16174;DHT22;14031;50.158;8.626;2023-07-29T02:31:37;20.40;99.90
16174;DHT22;14031;50.158;8.626;2023-07-29T02:34:04;20.30;99.90
16174;DHT22;14031;50.158;8.626;2023-07-29T02:36:30;20.40;99.90
16174;DHT22;14031;50.158;8.626;2023-07-29T02:38:57;20.40;99.90
16174;DHT22;14031;50.158;8.626;2023-07-29T02:41:24;20.10;99.90
16174;DHT22;14031;50.158;8.626;2023-07-29T02:43:51;20.30;99.90
16174;DHT22;14031;50.158;8.626;2023-07-29T02:46:18;20.30;99.90
16174;DHT22;14031;50.158;8.626;2023-07-29T02:48:46;20.30;99.90
16174;DHT22;14031;50.158;8.626;2023-07-29T02:51:13;20.30;99.90
16174;DHT22;14031;50.158;8.626;2023-07-29T02:53:40;20.30;99.90
16174;DHT22;14031;50.158;8.626;2023-07-29T02:56:06;20.30;99.90
16174;DHT22;14031;50.158;8.626;2023-07-29T02:58:34;20.30;99.90
16174;DHT22;14031;50.158;8.626;2023-07-29T03:01:02;20.40;99.90
16174;DHT22;14031;50.158;8.626;2023-07-29T03:03:29;20.40;99.90
16174;DHT22;14031;50.158;8.626;2023-07-29T03:06:02;20.40;99.90
16174;DHT22;14031;50.158;8.626;2023-07-29T03:08:29;20.30;99.90
16174;DHT22;14031;50.158;8.626;2023-07-29T03:11:04;20.30;99.90
16174;DHT22;14031;50.158;8.626;2023-07-29T03:13:31;20.30;99.90
16174;DHT22;14031;50.158;8.626;2023-07-29T03:16:05;20.30;99.90
16174;DHT22;14031;50.158;8.626;2023-07-29T03:18:32;20.30;99.90
16174;DHT22;14031;50.158;8.626;2023-07-29T03:20:58;20.30;99.90
16174;DHT22;14031;50.158;8.626;2023-07-29T03:23:27;20.30;99.90
16174;DHT22;14031;50.158;8.626;2023-07-29T03:25:55;20.30;99.90
16174;DHT22;14031;50.158;8.626;2023-07-29T03:28:23;20.20;99.90
16174;DHT22;14031;50.158;8.626;2023-07-29T03:30:50;20.30;99.90
16174;DHT22;14031;50.158;8.626;2023-07-29T03:33:17;20.30;99.90
16174;DHT22;14031;50.158;8.626;2023-07-29T03:35:44;20.30;99.90
16174;DHT22;14031;50.158;8.626;2023-07-29T03:38:11;20.30;99.90
16174;DHT22;14031;50.158;8.626;2023-07-29T03:40:39;20.20;99.90
16174;DHT22;14031;50.158;8.626;2023-07-29T03:43:07;20.40;99.90
16174;DHT22;14031;50.158;8.626;2023-07-29T03:45:34;20.10;99.90
16174;DHT22;14031;50.158;8.626;2023-07-29T03:48:01;20.20;99.90
16174;DHT22;14031;50.158;8.626;2023-07-29T03:50:29;20.20;99.90
16174;DHT22;14031;50.158;8.626;2023-07-29T03:52:56;20.20;99.90
16174;DHT22;14031;50.158;8.626;2023-07-29T03:55:23;20.10;99.90
16174;DHT22;14031;50.158;8.626;2023-07-29T03:57:52;20.20;99.90
16174;DHT22;14031;50.158;8.626;2023-07-29T04:00:19;20.20;99.90
16174;DHT22;14031;50.158;8.626;2023-07-29T04:02:46;20.20;99.90
16174;DHT22;14031;50.158;8.626;2023-07-29T04:05:14;20.10;99.90
16174;DHT22;14031;50.158;8.626;2023-07-29T04:07:41;20.20;99.90
16174;DHT22;14031;50.158;8.626;2023-07-29T04:10:09;20.20;99.90
16174;DHT22;14031;50.158;8.626;2023-07-29T04:12:36;20.40;99.90
16174;DHT22;14031;50.158;8.626;2023-07-29T04:15:05;20.30;99.90
16174;DHT22;14031;50.158;8.626;2023-07-29T04:17:32;20.20;99.90
16174;DHT22;14031;50.158;8.626;2023-07-29T04:19:59;20.20;99.90
16174;DHT22;14031;50.158;8.626;2023-07-29T04:22:25;20.20;99.90
16174;DHT22;14031;50.158;8.626;2023-07-29T04:24:52;20.20;99.90
16174;DHT22;14031;50.158;8.626;2023-07-29T04:27:21;20.20;99.90
16174;DHT22;14031;50.158;8.626;2023-07-29T04:29:50;20.20;99.90
16174;DHT22;14031;50.158;8.626;2023-07-29T04:32:18;20.20;99.90
16174;DHT22;14031;50.158;8.626;2023-07-29T04:34:45;20.20;99.90
16174;DHT22;14031;50.158;8.626;2023-07-29T04:37:11;20.20;99.90
16174;DHT22;14031;50.158;8.626;2023-07-29T04:39:38;20.20;99.90
16174;DHT22;14031;50.158;8.626;2023-07-29T04:42:05;20.20;99.90
16174;DHT22;14031;50.158;8.626;2023-07-29T04:44:32;20.20;99.90
16174;DHT22;14031;50.158;8.626;2023-07-29T04:46:59;20.20;99.90
16174;DHT22;14031;50.158;8.626;2023-07-29T04:49:27;20.40;99.90
16174;DHT22;14031;50.158;8.626;2023-07-29T04:51:54;20.30;99.90
16174;DHT22;14031;50.158;8.626;2023-07-29T04:54:21;20.10;99.90
16174;DHT22;14031;50.158;8.626;2023-07-29T04:56:49;20.30;99.90
16174;DHT22;14031;50.158;8.626;2023-07-29T04:59:16;20.30;99.90
16174;DHT22;14031;50.158;8.626;2023-07-29T05:01:43;20.40;99.90
16174;DHT22;14031;50.158;8.626;2023-07-29T05:04:12;20.50;99.90
16174;DHT22;14031;50.158;8.626;2023-07-29T05:06:40;20.30;99.90
16174;DHT22;14031;50.158;8.626;2023-07-29T05:09:16;20.30;99.90
16174;DHT22;14031;50.158;8.626;2023-07-29T05:11:44;20.30;99.90
16174;DHT22;14031;50.158;8.626;2023-07-29T05:14:12;20.40;99.90
16174;DHT22;14031;50.158;8.626;2023-07-29T05:16:39;20.30;99.90
16174;DHT22;14031;50.158;8.626;2023-07-29T05:19:05;20.40;99.90
16174;DHT22;14031;50.158;8.626;2023-07-29T05:21:33;20.40;99.90
16174;DHT22;14031;50.158;8.626;2023-07-29T05:24:01;20.50;99.90
16174;DHT22;14031;50.158;8.626;2023-07-29T05:26:28;20.40;99.90
16174;DHT22;14031;50.158;8.626;2023-07-29T05:28:54;20.50;99.90
16174;DHT22;14031;50.158;8.626;2023-07-29T05:31:22;20.50;99.90
16174;DHT22;14031;50.158;8.626;2023-07-29T05:33:48;20.50;99.90
16174;DHT22;14031;50.158;8.626;2023-07-29T05:36:15;20.60;99.90
16174;DHT22;14031;50.158;8.626;2023-07-29T05:38:42;20.60;99.90
16174;DHT22;14031;50.158;8.626;2023-07-29T05:41:10;20.60;99.90
16174;DHT22;14031;50.158;8.626;2023-07-29T05:43:37;20.60;99.90
16174;DHT22;14031;50.158;8.626;2023-07-29T05:46:04;20.50;99.90
16174;DHT22;14031;50.158;8.626;2023-07-29T05:48:31;20.50;99.90
16174;DHT22;14031;50.158;8.626;2023-07-29T05:50:58;20.60;99.90
16174;DHT22;14031;50.158;8.626;2023-07-29T05:53:25;20.60;99.90
16174;DHT22;14031;50.158;8.626;2023-07-29T05:55:51;20.50;99.90
16174;DHT22;14031;50.158;8.626;2023-07-29T05:58:20;20.50;99.90
16174;DHT22;14031;50.158;8.626;2023-07-29T06:00:46;20.60;99.90
16174;DHT22;14031;50.158;8.626;2023-07-29T06:03:13;20.60;99.90
16174;DHT22;14031;50.158;8.626;2023-07-29T06:05:40;20.60;99.90
16174;DHT22;14031;50.158;8.626;2023-07-29T06:08:07;20.70;99.90
16174;DHT22;14031;50.158;8.626;2023-07-29T06:10:34;20.60;99.90
16174;DHT22;14031;50.158;8.626;2023-07-29T06:13:01;20.70;99.90
16174;DHT22;14031;50.158;8.626;2023-07-29T06:15:29;20.70;99.90
16174;DHT22;14031;50.158;8.626;2023-07-29T06:17:56;20.60;99.90
16174;DHT22;14031;50.158;8.626;2023-07-29T06:20:23;20.60;99.90
16174;DHT22;14031;50.158;8.626;2023-07-29T06:22:50;20.50;99.90
16174;DHT22;14031;50.158;8.626;2023-07-29T06:25:17;20.70;99.90
16174;DHT22;14031;50.158;8.626;2023-07-29T06:27:44;20.50;99.90
16174;DHT22;14031;50.158;8.626;2023-07-29T06:30:11;20.30;99.90
16174;DHT22;14031;50.158;8.626;2023-07-29T06:32:39;20.40;99.90
16174;DHT22;14031;50.158;8.626;2023-07-29T06:35:06;20.40;99.90
16174;DHT22;14031;50.158;8.626;2023-07-29T06:37:33;20.30;99.90
16174;DHT22;14031;50.158;8.626;2023-07-29T06:40:00;20.40;99.90
16174;DHT22;14031;50.158;8.626;2023-07-29T06:42:27;20.40;99.90
16174;DHT22;14031;50.158;8.626;2023-07-29T06:44:53;20.30;99.90
16174;DHT22;14031;50.158;8.626;2023-07-29T06:47:20;20.40;99.90
16174;DHT22;14031;50.158;8.626;2023-07-29T06:49:48;20.50;99.90
16174;DHT22;14031;50.158;8.626;2023-07-29T06:52:15;20.40;99.90
16174;DHT22;14031;50.158;8.626;2023-07-29T06:54:42;20.30;99.90
16174;DHT22;14031;50.158;8.626;2023-07-29T06:57:08;20.40;99.90
16174;DHT22;14031;50.158;8.626;2023-07-29T06:59:35;20.40;99.90
16174;DHT22;14031;50.158;8.626;2023-07-29T07:02:02;20.40;99.90
16174;DHT22;14031;50.158;8.626;2023-07-29T07:04:29;20.40;99.90
16174;DHT22;14031;50.158;8.626;2023-07-29T07:06:58;20.60;99.90
16174;DHT22;14031;50.158;8.626;2023-07-29T07:09:25;20.30;99.90
16174;DHT22;14031;50.158;8.626;2023-07-29T07:11:52;20.30;99.90
16174;DHT22;14031;50.158;8.626;2023-07-29T07:14:19;20.20;99.90
16174;DHT22;14031;50.158;8.626;2023-07-29T07:16:45;20.30;99.90
16174;DHT22;14031;50.158;8.626;2023-07-29T07:19:12;20.30;99.90
16174;DHT22;14031;50.158;8.626;2023-07-29T07:21:39;20.20;99.90
16174;DHT22;14031;50.158;8.626;2023-07-29T07:24:07;20.40;99.90
16174;DHT22;14031;50.158;8.626;2023-07-29T07:26:34;20.50;99.90
16174;DHT22;14031;50.158;8.626;2023-07-29T07:29:01;20.40;99.90
16174;DHT22;14031;50.158;8.626;2023-07-29T07:31:27;20.50;99.90
16174;DHT22;14031;50.158;8.626;2023-07-29T07:33:54;20.50;99.90
16174;DHT22;14031;50.158;8.626;2023-07-29T07:36:21;20.50;99.90
16174;DHT22;14031;50.158;8.626;2023-07-29T07:38:48;20.50;99.90
16174;DHT22;14031;50.158;8.626;2023-07-29T07:41:16;20.50;99.90
16174;DHT22;14031;50.158;8.626;2023-07-29T07:43:42;20.50;99.90
16174;DHT22;14031;50.158;8.626;2023-07-29T07:46:09;20.60;99.90
16174;DHT22;14031;50.158;8.626;2023-07-29T07:48:37;20.60;99.90
16174;DHT22;14031;50.158;8.626;2023-07-29T07:51:10;20.60;99.90
16174;DHT22;14031;50.158;8.626;2023-07-29T07:53:37;20.60;99.90
16174;DHT22;14031;50.158;8.626;2023-07-29T07:56:04;20.70;99.90
16174;DHT22;14031;50.158;8.626;2023-07-29T07:58:32;20.70;99.90
16174;DHT22;14031;50.158;8.626;2023-07-29T08:01:01;20.60;99.90
16174;DHT22;14031;50.158;8.626;2023-07-29T08:03:28;20.60;99.90
16174;DHT22;14031;50.158;8.626;2023-07-29T08:05:55;20.80;99.90
16174;DHT22;14031;50.158;8.626;2023-07-29T08:08:22;20.80;99.90
16174;DHT22;14031;50.158;8.626;2023-07-29T08:10:49;20.60;99.90
16174;DHT22;14031;50.158;8.626;2023-07-29T08:13:15;20.90;99.90
16174;DHT22;14031;50.158;8.626;2023-07-29T08:15:47;20.90;99.90
16174;DHT22;14031;50.158;8.626;2023-07-29T08:18:14;21.00;99.90
16174;DHT22;14031;50.158;8.626;2023-07-29T08:20:41;21.20;99.90
16174;DHT22;14031;50.158;8.626;2023-07-29T08:23:07;21.50;99.90
16174;DHT22;14031;50.158;8.626;2023-07-29T08:25:34;21.80;99.90
16174;DHT22;14031;50.158;8.626;2023-07-29T08:28:01;22.10;99.90
16174;DHT22;14031;50.158;8.626;2023-07-29T08:30:28;22.30;99.90
16174;DHT22;14031;50.158;8.626;2023-07-29T08:32:56;22.40;99.90
16174;DHT22;14031;50.158;8.626;2023-07-29T08:35:22;22.40;99.90
16174;DHT22;14031;50.158;8.626;2023-07-29T08:37:49;22.40;99.90
16174;DHT22;14031;50.158;8.626;2023-07-29T08:40:16;22.60;99.90
16174;DHT22;14031;50.158;8.626;2023-07-29T08:42:45;22.80;99.90
16174;DHT22;14031;50.158;8.626;2023-07-29T08:45:14;23.00;99.90
16174;DHT22;14031;50.158;8.626;2023-07-29T08:47:43;23.20;99.90
16174;DHT22;14031;50.158;8.626;2023-07-29T08:50:12;23.30;99.90
16174;DHT22;14031;50.158;8.626;2023-07-29T08:52:40;23.40;99.90
16174;DHT22;14031;50.158;8.626;2023-07-29T08:55:08;23.60;99.90
16174;DHT22;14031;50.158;8.626;2023-07-29T08:57:35;23.70;99.90
16174;DHT22;14031;50.158;8.626;2023-07-29T09:00:02;23.80;99.90
16174;DHT22;14031;50.158;8.626;2023-07-29T09:02:29;23.80;99.90
16174;DHT22;14031;50.158;8.626;2023-07-29T09:04:56;23.90;99.90
16174;DHT22;14031;50.158;8.626;2023-07-29T09:07:25;24.00;99.90
16174;DHT22;14031;50.158;8.626;2023-07-29T09:09:52;24.10;99.90
16174;DHT22;14031;50.158;8.626;2023-07-29T09:12:19;24.20;99.90
16174;DHT22;14031;50.158;8.626;2023-07-29T09:14:46;24.30;99.90
16174;DHT22;14031;50.158;8.626;2023-07-29T09:17:14;24.40;99.90
16174;DHT22;14031;50.158;8.626;2023-07-29T09:19:41;24.40;99.90
16174;DHT22;14031;50.158;8.626;2023-07-29T09:22:17;24.30;99.90
16174;DHT22;14031;50.158;8.626;2023-07-29T09:24:46;24.30;99.90
16174;DHT22;14031;50.158;8.626;2023-07-29T09:27:23;24.30;99.90
16174;DHT22;14031;50.158;8.626;2023-07-29T09:29:50;24.30;99.90
16174;DHT22;14031;50.158;8.626;2023-07-29T09:32:18;24.30;99.90
16174;DHT22;14031;50.158;8.626;2023-07-29T09:34:45;24.20;99.90
16174;DHT22;14031;50.158;8.626;2023-07-29T09:37:16;24.20;99.90
16174;DHT22;14031;50.158;8.626;2023-07-29T09:39:45;24.10;99.90
16174;DHT22;14031;50.158;8.626;2023-07-29T09:42:17;24.20;99.90
16174;DHT22;14031;50.158;8.626;2023-07-29T09:44:45;24.30;99.90
16174;DHT22;14031;50.158;8.626;2023-07-29T09:47:19;24.40;99.90
16174;DHT22;14031;50.158;8.626;2023-07-29T09:49:47;24.40;99.90
16174;DHT22;14031;50.158;8.626;2023-07-29T09:52:15;24.40;99.90
16174;DHT22;14031;50.158;8.626;2023-07-29T09:54:42;24.50;99.90
16174;DHT22;14031;50.158;8.626;2023-07-29T09:57:11;24.60;99.90
16174;DHT22;14031;50.158;8.626;2023-07-29T09:59:38;24.80;99.90
16174;DHT22;14031;50.158;8.626;2023-07-29T10:02:05;24.90;99.90
16174;DHT22;14031;50.158;8.626;2023-07-29T10:04:36;24.90;99.90
16174;DHT22;14031;50.158;8.626;2023-07-29T10:07:03;24.90;99.90
16174;DHT22;14031;50.158;8.626;2023-07-29T10:09:30;24.90;99.90
16174;DHT22;14031;50.158;8.626;2023-07-29T10:11:57;24.90;99.90
16174;DHT22;14031;50.158;8.626;2023-07-29T10:14:28;24.90;99.90
16174;DHT22;14031;50.158;8.626;2023-07-29T10:16:56;24.80;99.90
16174;DHT22;14031;50.158;8.626;2023-07-29T10:19:24;24.90;99.90
16174;DHT22;14031;50.158;8.626;2023-07-29T10:21:52;24.80;99.90
16174;DHT22;14031;50.158;8.626;2023-07-29T10:24:19;25.00;99.90
16174;DHT22;14031;50.158;8.626;2023-07-29T10:26:57;25.30;99.90
16174;DHT22;14031;50.158;8.626;2023-07-29T10:29:27;25.60;99.90
16174;DHT22;14031;50.158;8.626;2023-07-29T10:31:57;25.70;99.90
16174;DHT22;14031;50.158;8.626;2023-07-29T10:34:25;25.70;99.90
16174;DHT22;14031;50.158;8.626;2023-07-29T10:36:52;25.80;99.90
16174;DHT22;14031;50.158;8.626;2023-07-29T10:39:19;25.70;99.90
16174;DHT22;14031;50.158;8.626;2023-07-29T10:41:56;25.70;99.90
16174;DHT22;14031;50.158;8.626;2023-07-29T10:44:50;25.60;99.90
16174;DHT22;14031;50.158;8.626;2023-07-29T10:47:18;25.50;99.90
16174;DHT22;14031;50.158;8.626;2023-07-29T10:49:46;25.50;99.90
16174;DHT22;14031;50.158;8.626;2023-07-29T10:52:14;25.50;99.90
16174;DHT22;14031;50.158;8.626;2023-07-29T10:54:42;25.50;99.90
16174;DHT22;14031;50.158;8.626;2023-07-29T10:57:13;25.40;99.90
16174;DHT22;14031;50.158;8.626;2023-07-29T10:59:40;25.30;99.90
16174;DHT22;14031;50.158;8.626;2023-07-29T11:02:17;25.20;99.90
16174;DHT22;14031;50.158;8.626;2023-07-29T11:04:49;25.10;99.90
16174;DHT22;14031;50.158;8.626;2023-07-29T11:07:21;25.00;99.90
16174;DHT22;14031;50.158;8.626;2023-07-29T11:10:00;25.00;99.90
16174;DHT22;14031;50.158;8.626;2023-07-29T11:12:44;24.90;99.90
16174;DHT22;14031;50.158;8.626;2023-07-29T11:15:23;24.80;99.90
16174;DHT22;14031;50.158;8.626;2023-07-29T11:17:53;24.80;99.90
16174;DHT22;14031;50.158;8.626;2023-07-29T11:20:21;24.90;99.90
16174;DHT22;14031;50.158;8.626;2023-07-29T11:22:49;25.00;99.90
16174;DHT22;14031;50.158;8.626;2023-07-29T11:25:17;25.10;99.90
16174;DHT22;14031;50.158;8.626;2023-07-29T11:27:45;25.30;99.90
16174;DHT22;14031;50.158;8.626;2023-07-29T11:30:13;25.30;99.90
16174;DHT22;14031;50.158;8.626;2023-07-29T11:32:40;25.30;99.90
16174;DHT22;14031;50.158;8.626;2023-07-29T11:35:11;25.40;99.90
16174;DHT22;14031;50.158;8.626;2023-07-29T11:37:40;25.60;99.90
16174;DHT22;14031;50.158;8.626;2023-07-29T11:40:08;25.80;99.90
16174;DHT22;14031;50.158;8.626;2023-07-29T11:42:37;26.20;99.90
16174;DHT22;14031;50.158;8.626;2023-07-29T11:45:05;26.60;99.90
16174;DHT22;14031;50.158;8.626;2023-07-29T11:47:33;27.00;99.90
16174;DHT22;14031;50.158;8.626;2023-07-29T11:50:02;27.10;99.90
16174;DHT22;14031;50.158;8.626;2023-07-29T11:52:31;27.10;99.90
16174;DHT22;14031;50.158;8.626;2023-07-29T11:55:00;27.20;99.90
16174;DHT22;14031;50.158;8.626;2023-07-29T11:57:35;27.50;99.90
16174;DHT22;14031;50.158;8.626;2023-07-29T12:00:03;27.80;99.90
16174;DHT22;14031;50.158;8.626;2023-07-29T12:02:32;28.00;99.90
16174;DHT22;14031;50.158;8.626;2023-07-29T12:04:59;28.30;99.90
16174;DHT22;14031;50.158;8.626;2023-07-29T12:07:27;28.60;99.90
16174;DHT22;14031;50.158;8.626;2023-07-29T12:09:56;28.60;99.90
16174;DHT22;14031;50.158;8.626;2023-07-29T12:12:23;28.60;99.90
16174;DHT22;14031;50.158;8.626;2023-07-29T12:14:54;28.50;99.90
16174;DHT22;14031;50.158;8.626;2023-07-29T12:17:21;28.30;99.90
16174;DHT22;14031;50.158;8.626;2023-07-29T12:19:48;28.20;99.90
16174;DHT22;14031;50.158;8.626;2023-07-29T12:22:19;28.00;99.90
16174;DHT22;14031;50.158;8.626;2023-07-29T12:24:46;27.80;99.90
16174;DHT22;14031;50.158;8.626;2023-07-29T12:27:14;27.60;99.90
16174;DHT22;14031;50.158;8.626;2023-07-29T12:29:42;27.40;99.90
16174;DHT22;14031;50.158;8.626;2023-07-29T12:32:10;27.40;99.90
16174;DHT22;14031;50.158;8.626;2023-07-29T12:34:37;27.60;99.90
16174;DHT22;14031;50.158;8.626;2023-07-29T12:37:06;27.90;99.90
16174;DHT22;14031;50.158;8.626;2023-07-29T12:39:34;28.00;99.90
16174;DHT22;14031;50.158;8.626;2023-07-29T12:42:02;28.20;99.90
16174;DHT22;14031;50.158;8.626;2023-07-29T12:44:33;28.40;99.90
16174;DHT22;14031;50.158;8.626;2023-07-29T12:47:01;28.60;99.90
16174;DHT22;14031;50.158;8.626;2023-07-29T12:49:28;28.80;99.90
16174;DHT22;14031;50.158;8.626;2023-07-29T12:51:55;28.80;99.90
16174;DHT22;14031;50.158;8.626;2023-07-29T12:54:22;28.70;99.90
16174;DHT22;14031;50.158;8.626;2023-07-29T12:56:49;28.50;99.90
16174;DHT22;14031;50.158;8.626;2023-07-29T12:59:15;28.10;99.90
16174;DHT22;14031;50.158;8.626;2023-07-29T13:01:44;27.80;99.90
16174;DHT22;14031;50.158;8.626;2023-07-29T13:04:11;27.60;99.90
16174;DHT22;14031;50.158;8.626;2023-07-29T13:06:38;27.30;99.90
16174;DHT22;14031;50.158;8.626;2023-07-29T13:09:05;27.00;99.90
16174;DHT22;14031;50.158;8.626;2023-07-29T13:11:32;26.80;99.90
16174;DHT22;14031;50.158;8.626;2023-07-29T13:13:59;26.60;99.90
16174;DHT22;14031;50.158;8.626;2023-07-29T13:16:26;26.50;99.90
16174;DHT22;14031;50.158;8.626;2023-07-29T13:18:54;26.30;99.90
16174;DHT22;14031;50.158;8.626;2023-07-29T13:21:21;26.20;99.90
16174;DHT22;14031;50.158;8.626;2023-07-29T13:23:48;26.20;99.90
16174;DHT22;14031;50.158;8.626;2023-07-29T13:26:15;26.40;99.90
16174;DHT22;14031;50.158;8.626;2023-07-29T13:28:41;26.80;99.90
16174;DHT22;14031;50.158;8.626;2023-07-29T13:31:08;27.20;99.90
16174;DHT22;14031;50.158;8.626;2023-07-29T13:33:35;27.50;99.90
16174;DHT22;14031;50.158;8.626;2023-07-29T13:36:03;27.90;99.90
16174;DHT22;14031;50.158;8.626;2023-07-29T13:38:30;28.30;99.90
16174;DHT22;14031;50.158;8.626;2023-07-29T13:40:57;28.50;99.90
16174;DHT22;14031;50.158;8.626;2023-07-29T13:43:24;28.90;99.90
16174;DHT22;14031;50.158;8.626;2023-07-29T13:45:50;29.30;99.90
16174;DHT22;14031;50.158;8.626;2023-07-29T13:48:18;29.70;99.90
16174;DHT22;14031;50.158;8.626;2023-07-29T13:50:44;30.00;99.90
16174;DHT22;14031;50.158;8.626;2023-07-29T13:53:13;30.30;99.90
16174;DHT22;14031;50.158;8.626;2023-07-29T13:55:39;30.30;99.90
16174;DHT22;14031;50.158;8.626;2023-07-29T13:58:06;30.40;99.90
16174;DHT22;14031;50.158;8.626;2023-07-29T14:00:33;30.30;99.90
16174;DHT22;14031;50.158;8.626;2023-07-29T14:03:00;30.10;99.90
16174;DHT22;14031;50.158;8.626;2023-07-29T14:05:27;29.80;99.90
16174;DHT22;14031;50.158;8.626;2023-07-29T14:07:53;29.90;99.90
16174;DHT22;14031;50.158;8.626;2023-07-29T14:10:22;30.30;99.90
16174;DHT22;14031;50.158;8.626;2023-07-29T14:12:48;31.20;99.90
16174;DHT22;14031;50.158;8.626;2023-07-29T14:15:15;31.80;99.90
16174;DHT22;14031;50.158;8.626;2023-07-29T14:17:42;32.30;99.90
16174;DHT22;14031;50.158;8.626;2023-07-29T14:20:10;32.70;99.90
16174;DHT22;14031;50.158;8.626;2023-07-29T14:22:37;32.40;99.90
16174;DHT22;14031;50.158;8.626;2023-07-29T14:25:04;31.80;99.90
16174;DHT22;14031;50.158;8.626;2023-07-29T14:27:33;31.60;99.90
16174;DHT22;14031;50.158;8.626;2023-07-29T14:30:00;32.10;99.90
16174;DHT22;14031;50.158;8.626;2023-07-29T14:32:27;32.30;99.90
16174;DHT22;14031;50.158;8.626;2023-07-29T14:34:54;32.30;99.90
16174;DHT22;14031;50.158;8.626;2023-07-29T14:37:20;32.30;99.90
16174;DHT22;14031;50.158;8.626;2023-07-29T14:39:47;31.90;99.90
16174;DHT22;14031;50.158;8.626;2023-07-29T14:42:14;31.70;99.90
16174;DHT22;14031;50.158;8.626;2023-07-29T14:44:42;32.00;99.90
16174;DHT22;14031;50.158;8.626;2023-07-29T14:47:09;32.50;99.90
16174;DHT22;14031;50.158;8.626;2023-07-29T14:49:36;33.10;99.90
16174;DHT22;14031;50.158;8.626;2023-07-29T14:52:03;33.60;99.90
16174;DHT22;14031;50.158;8.626;2023-07-29T14:54:30;33.80;99.90
16174;DHT22;14031;50.158;8.626;2023-07-29T14:56:57;34.00;99.90
16174;DHT22;14031;50.158;8.626;2023-07-29T14:59:24;34.40;99.90
16174;DHT22;14031;50.158;8.626;2023-07-29T15:01:52;34.80;99.90
16174;DHT22;14031;50.158;8.626;2023-07-29T15:04:19;35.20;99.70
16174;DHT22;14031;50.158;8.626;2023-07-29T15:06:45;35.30;99.40
16174;DHT22;14031;50.158;8.626;2023-07-29T15:09:12;34.90;98.30
16174;DHT22;14031;50.158;8.626;2023-07-29T15:11:39;34.80;98.70
16174;DHT22;14031;50.158;8.626;2023-07-29T15:14:06;34.90;99.40
16174;DHT22;14031;50.158;8.626;2023-07-29T15:16:33;35.20;98.30
16174;DHT22;14031;50.158;8.626;2023-07-29T15:19:02;35.50;95.30
16174;DHT22;14031;50.158;8.626;2023-07-29T15:21:29;35.60;95.40
16174;DHT22;14031;50.158;8.626;2023-07-29T15:23:56;35.60;94.30
16174;DHT22;14031;50.158;8.626;2023-07-29T15:26:22;35.70;93.80
16174;DHT22;14031;50.158;8.626;2023-07-29T15:28:49;35.60;92.60
16174;DHT22;14031;50.158;8.626;2023-07-29T15:31:16;34.80;92.40
16174;DHT22;14031;50.158;8.626;2023-07-29T15:33:43;33.80;94.00